Time;durP1;ratioP1;P1;durP2;ratioP2;P2;SDS_P1;SDS_P2;PMS_P1;PMS_P2;Temp;Humidity;BMP_temperature;BMP_pressure;BME280_temperature;BME280_humidity;BME280_pressure;Samples;Min_cycle;Max_cycle;Signal;HPM_P1;HPM_P2
2024/01/06 00:02:14;;;;;;;27.13;14.90;;;;;;;6.02;100.00;92835.00;5119751;28;20019;-89
2024/01/06 00:04:40;;;;;;;27.35;14.63;;;;;;;6.17;100.00;92836.66;5136664;28;20019;-89
2024/01/06 00:07:05;;;;;;;27.67;14.88;;;;;;;6.12;100.00;92828.16;5137623;27;20061;-90
2024/01/06 00:09:30;;;;;;;26.95;15.27;;;;;;;6.14;100.00;92834.63;5136512;28;20030;-89
2024/01/06 00:11:56;;;;;;;32.67;15.88;;;;;;;6.02;100.00;92831.63;5136482;28;20023;-89
2024/01/06 00:14:21;;;;;;;24.98;14.43;;;;;;;6.21;100.00;92831.69;5119632;28;20080;-89
2024/01/06 00:16:47;;;;;;;40.20;13.77;;;;;;;6.45;100.00;92821.28;5137565;28;20038;-89
2024/01/06 00:19:12;;;;;;;25.38;14.80;;;;;;;6.51;100.00;92825.34;5136240;28;20428;-89
2024/01/06 00:21:38;;;;;;;26.58;15.13;;;;;;;6.27;100.00;92822.00;5137643;27;20038;-89
2024/01/06 00:24:04;;;;;;;27.67;14.90;;;;;;;6.46;100.00;92816.84;5136445;28;20024;-89
2024/01/06 00:26:29;;;;;;;29.35;15.68;;;;;;;6.17;100.00;92812.47;5119381;28;20034;-89
2024/01/06 00:28:55;;;;;;;25.85;14.80;;;;;;;6.18;100.00;92832.25;5136203;28;20027;-89
2024/01/06 00:31:20;;;;;;;48.45;17.42;;;;;;;5.46;100.00;92815.50;5119352;28;20432;-88
2024/01/06 00:33:46;;;;;;;32.20;16.67;;;;;;;5.63;100.00;92818.44;5136541;28;20038;-89
2024/01/06 00:36:12;;;;;;;69.03;18.15;;;;;;;5.52;100.00;92848.16;5137490;27;20050;-90
2024/01/06 00:38:37;;;;;;;70.82;18.48;;;;;;;5.58;100.00;92841.09;5121550;28;20326;-88
2024/01/06 00:41:03;;;;;;;40.08;18.35;;;;;;;5.72;100.00;92826.41;5098980;28;20045;-89
2024/01/06 00:43:28;;;;;;;43.05;18.70;;;;;;;5.71;100.00;92837.88;5098945;28;20028;-90
2024/01/06 00:45:53;;;;;;;35.88;18.70;;;;;;;5.82;100.00;92835.19;5117654;28;20536;-88
2024/01/06 00:48:19;;;;;;;33.97;18.38;;;;;;;5.94;100.00;92846.75;5134219;27;20116;-89
2024/01/06 00:50:44;;;;;;;28.52;15.52;;;;;;;5.83;100.00;92832.31;5161918;27;20116;-89
2024/01/06 00:53:11;;;;;;;32.65;16.80;;;;;;;5.73;100.00;92837.59;5160958;27;20416;-89
2024/01/06 00:55:45;;;;;;;29.05;16.08;;;;;;;5.84;100.00;92841.66;5143083;27;20034;-90
2024/01/06 00:58:11;;;;;;;33.35;16.45;;;;;;;5.89;100.00;92843.44;5160101;27;20340;-89
2024/01/06 01:00:37;;;;;;;65.93;17.55;;;;;;;5.20;100.00;92837.25;5161751;27;20026;-89
2024/01/06 01:03:02;;;;;;;44.95;16.17;;;;;;;5.40;100.00;92817.34;5160525;27;20023;-89
2024/01/06 01:05:28;;;;;;;32.13;15.30;;;;;;;5.46;100.00;92825.88;5160515;27;20113;-89
2024/01/06 01:07:53;;;;;;;32.38;15.05;;;;;;;5.55;100.00;92823.47;5142807;27;20027;-89
2024/01/06 01:10:18;;;;;;;27.73;15.07;;;;;;;5.27;100.00;92820.56;5161557;27;20423;-88
2024/01/06 01:12:44;;;;;;;27.25;14.98;;;;;;;5.71;100.00;92827.47;5143211;27;20027;-89
2024/01/06 01:15:09;;;;;;;27.10;14.35;;;;;;;5.92;100.00;92837.69;5160533;27;20027;-89
2024/01/06 01:17:36;;;;;;;24.50;14.07;;;;;;;6.09;100.00;92829.47;5159870;27;20328;-89
2024/01/06 01:20:02;;;;;;;26.15;14.50;;;;;;;6.16;100.00;92829.13;5143041;27;20030;-87
2024/01/06 01:22:28;;;;;;;26.63;13.98;;;;;;;6.06;100.00;92825.63;5160106;27;20071;-89
2024/01/06 01:24:53;;;;;;;26.30;14.43;;;;;;;5.63;100.00;92822.88;5160416;27;20033;-88
2024/01/06 01:27:18;;;;;;;23.02;12.57;;;;;;;5.70;100.00;92818.13;5159858;27;20091;-88
2024/01/06 01:29:44;;;;;;;25.10;13.90;;;;;;;5.42;100.00;92825.63;5159921;27;20095;-90
2024/01/06 01:32:09;;;;;;;24.60;13.88;;;;;;;5.56;100.00;92825.81;5142506;27;20335;-89
2024/01/06 01:34:35;;;;;;;24.60;13.27;;;;;;;5.59;100.00;92822.66;5159926;27;20062;-88
2024/01/06 01:37:00;;;;;;;25.77;14.70;;;;;;;5.67;100.00;92829.06;5160975;27;20033;-89
2024/01/06 01:39:26;;;;;;;24.00;12.95;;;;;;;5.85;100.00;92813.81;5160056;27;20035;-89
2024/01/06 01:41:51;;;;;;;22.75;12.88;;;;;;;5.94;100.00;92814.78;5159850;27;20406;-90
2024/01/06 01:44:17;;;;;;;21.35;12.50;;;;;;;5.94;100.00;92814.78;5142358;27;20407;-89
2024/01/06 01:46:42;;;;;;;22.52;12.93;;;;;;;5.59;100.00;92808.88;5142775;27;20439;-89
2024/01/06 01:49:07;;;;;;;23.23;13.85;;;;;;;5.65;100.00;92800.00;5159461;27;20038;-88
2024/01/06 01:51:35;;;;;;;24.63;13.85;;;;;;;5.89;100.00;92809.66;5159544;27;20027;-89
2024/01/06 01:54:05;;;;;;;22.58;12.93;;;;;;;5.99;100.00;92814.72;5160663;27;20121;-89
2024/01/06 01:56:34;;;;;;;22.55;13.02;;;;;;;5.98;100.00;92810.56;5142083;27;20022;-89
2024/01/06 01:59:09;;;;;;;23.48;12.20;;;;;;;5.97;100.00;92811.63;5159267;27;20068;-89
2024/01/06 02:01:35;;;;;;;22.85;13.07;;;;;;;5.90;100.00;92804.16;5142261;27;20038;-90
2024/01/06 02:04:01;;;;;;;20.75;12.23;;;;;;;6.08;100.00;92812.31;5142269;27;20027;-91
2024/01/06 02:06:27;;;;;;;20.30;12.27;;;;;;;6.13;100.00;92807.09;5126899;27;20027;-90
2024/01/06 02:08:53;;;;;;;22.95;12.77;;;;;;;6.21;100.00;92806.44;5109385;27;20114;-89
2024/01/06 02:11:19;;;;;;;19.70;12.20;;;;;;;6.19;100.00;92792.97;5116176;27;20038;-89
2024/01/06 02:13:44;;;;;;;22.23;12.70;;;;;;;6.28;100.00;92805.34;5108934;28;20353;-90
2024/01/06 02:16:10;;;;;;;22.15;12.95;;;;;;;6.00;100.00;92803.28;5101055;28;20032;-90
2024/01/06 02:18:36;;;;;;;21.95;12.80;;;;;;;6.06;100.00;92801.44;5100589;28;20028;-90
2024/01/06 02:21:02;;;;;;;62.95;14.48;;;;;;;6.05;100.00;92803.25;5122530;27;20187;-90
2024/01/06 02:23:28;;;;;;;20.52;12.15;;;;;;;6.20;100.00;92804.16;5137903;27;20088;-91
2024/01/06 02:25:54;;;;;;;21.65;11.98;;;;;;;6.38;100.00;92796.66;5125050;27;20035;-91
2024/01/06 02:28:20;;;;;;;21.63;12.48;;;;;;;6.45;100.00;92800.47;5138024;27;20076;-89
2024/01/06 02:30:45;;;;;;;32.88;14.07;;;;;;;6.21;100.00;92784.88;5137671;27;20420;-90
2024/01/06 02:33:11;;;;;;;26.15;13.85;;;;;;;6.20;100.00;92786.69;5137660;27;20031;-91
2024/01/06 02:35:36;;;;;;;27.33;13.75;;;;;;;6.32;100.00;92780.31;5120736;27;20031;-90
2024/01/06 02:38:02;;;;;;;139.45;16.73;;;;;;;6.26;100.00;92781.47;5137554;27;20096;-90
2024/01/06 02:40:27;;;;;;;383.30;24.55;;;;;;;5.58;100.00;92779.53;5136716;27;20391;-91
2024/01/06 02:42:53;;;;;;;38.85;13.68;;;;;;;5.76;100.00;92785.84;5100055;28;20024;-90
2024/01/06 02:45:18;;;;;;;22.98;13.27;;;;;;;6.16;100.00;92779.72;5116981;28;20028;-91
2024/01/06 02:47:44;;;;;;;476.42;30.55;;;;;;;5.79;100.00;92777.50;5116786;28;20356;-90
2024/01/06 02:50:09;;;;;;;83.45;13.00;;;;;;;6.10;100.00;92778.25;5116880;28;20024;-89
2024/01/06 02:52:34;;;;;;;25.95;13.10;;;;;;;5.78;100.00;92778.56;5124491;27;20452;-90
2024/01/06 02:55:02;;;;;;;22.83;12.75;;;;;;;6.03;100.00;92774.16;5121099;27;20051;-90
2024/01/06 02:57:30;;;;;;;23.38;12.48;;;;;;;6.27;100.00;92775.19;5120232;27;20431;-90
2024/01/06 02:59:55;;;;;;;76.07;14.07;;;;;;;6.15;100.00;92770.38;5120335;27;20129;-90
2024/01/06 03:02:21;;;;;;;36.13;13.23;;;;;;;6.22;100.00;92755.22;5143515;27;20098;-91
2024/01/06 03:04:46;;;;;;;22.17;12.02;;;;;;;6.26;100.00;92761.41;5125740;27;20031;-89
2024/01/06 03:07:15;;;;;;;21.98;12.50;;;;;;;6.36;100.00;92771.69;5116665;28;20439;-91
2024/01/06 03:09:40;;;;;;;19.92;12.00;;;;;;;5.92;100.00;92775.31;5116053;28;20081;-90
2024/01/06 03:12:09;;;;;;;19.65;11.40;;;;;;;6.20;100.00;92765.91;5116315;28;20032;-90
2024/01/06 03:14:35;;;;;;;16.65;10.27;;;;;;;6.27;100.00;92770.75;5116644;28;20054;-91
2024/01/06 03:17:00;;;;;;;19.60;10.50;;;;;;;6.21;100.00;92770.03;5116386;28;20023;-90
2024/01/06 03:19:27;;;;;;;103.55;14.50;;;;;;;6.12;100.00;92760.53;5099515;28;20030;-89
2024/01/06 03:21:53;;;;;;;38.97;10.88;;;;;;;6.30;100.00;92765.00;5155188;27;20022;-90
2024/01/06 03:24:19;;;;;;;17.98;10.68;;;;;;;6.44;100.00;92765.09;5157562;27;20022;-90
2024/01/06 03:26:44;;;;;;;18.83;11.05;;;;;;;6.44;100.00;92766.91;5140416;27;20510;-90
2024/01/06 03:29:10;;;;;;;30.02;10.45;;;;;;;6.48;100.00;92760.09;5157337;27;20022;-89
2024/01/06 03:31:35;;;;;;;30.88;10.90;;;;;;;6.48;100.00;92762.72;5157663;27;20023;-90
2024/01/06 03:34:01;;;;;;;17.73;10.40;;;;;;;6.51;100.00;92762.13;5140305;27;20050;-91
2024/01/06 03:36:26;;;;;;;17.35;9.80;;;;;;;6.50;100.00;92760.59;5157469;27;20022;-91
2024/01/06 03:38:52;;;;;;;16.13;9.45;;;;;;;6.25;100.00;92764.31;5140205;27;20025;-90
2024/01/06 03:41:17;;;;;;;22.65;10.00;;;;;;;6.39;100.00;92766.97;5140252;27;20431;-90
2024/01/06 03:43:43;;;;;;;13.95;8.43;;;;;;;6.10;100.00;92753.03;5152405;27;20321;-91
2024/01/06 03:46:11;;;;;;;15.95;8.93;;;;;;;6.32;100.00;92757.72;5136450;27;20499;-90
2024/01/06 03:48:37;;;;;;;16.63;8.95;;;;;;;6.13;100.00;92756.88;5119455;28;20383;-90
2024/01/06 03:54:24;;;;;;;13.82;8.48;;;;;;;6.04;100.00;92754.91;5158358;27;20069;-89
2024/01/06 03:56:49;;;;;;;17.40;9.50;;;;;;;5.97;100.00;92754.44;5157283;27;20075;-89
2024/01/06 03:59:15;;;;;;;13.95;8.55;;;;;;;6.19;100.00;92753.94;5157382;27;20026;-89
2024/01/06 04:01:40;;;;;;;14.75;9.27;;;;;;;6.27;100.00;92757.00;5157775;27;20027;-90
2024/01/06 04:04:07;;;;;;;14.80;8.07;;;;;;;6.16;100.00;92761.53;5140304;27;20019;-90
2024/01/06 04:06:32;;;;;;;16.85;9.18;;;;;;;5.62;100.00;92764.94;5157007;27;20418;-90
2024/01/06 04:08:58;;;;;;;16.38;9.05;;;;;;;5.79;100.00;92772.31;5140265;27;20111;-90
2024/01/06 04:11:23;;;;;;;20.35;10.45;;;;;;;5.45;100.00;92767.97;5139877;27;20022;-89
2024/01/06 04:13:49;;;;;;;16.88;9.60;;;;;;;5.43;100.00;92759.66;5140498;27;20087;-91
2024/01/06 04:16:14;;;;;;;16.92;9.63;;;;;;;5.54;100.00;92757.75;5156812;27;20083;-90
2024/01/06 04:18:40;;;;;;;17.45;10.00;;;;;;;5.47;100.00;92757.28;5156851;27;20325;-89
2024/01/06 04:21:05;;;;;;;18.67;9.57;;;;;;;5.64;100.00;92751.69;5141342;27;20084;-89
2024/01/06 04:23:31;;;;;;;17.30;10.00;;;;;;;5.72;100.00;92748.47;5161262;27;20041;-89
2024/01/06 04:25:56;;;;;;;17.77;9.50;;;;;;;5.77;100.00;92753.63;5161304;27;20023;-90
2024/01/06 04:28:22;;;;;;;19.00;10.27;;;;;;;5.72;100.00;92760.69;5143498;27;20523;-90
2024/01/06 04:30:47;;;;;;;18.40;9.15;;;;;;;5.68;100.00;92763.06;5138162;27;20081;-89
2024/01/06 04:33:13;;;;;;;17.63;9.32;;;;;;;5.44;100.00;92769.00;5129264;27;20432;-90
2024/01/06 04:35:38;;;;;;;19.05;9.90;;;;;;;5.25;100.00;92761.13;5130331;27;20075;-89
2024/01/06 04:38:04;;;;;;;19.77;9.48;;;;;;;5.26;100.00;92762.69;5131362;27;20038;-90
2024/01/06 04:40:30;;;;;;;22.48;9.07;;;;;;;5.43;100.00;92769.28;5139805;27;20121;-90
2024/01/06 04:42:55;;;;;;;22.25;9.35;;;;;;;5.37;100.00;92765.97;5139990;27;20079;-89
2024/01/06 04:45:23;;;;;;;17.70;9.18;;;;;;;5.36;100.00;92767.00;5140040;27;20056;-89
2024/01/06 04:47:49;;;;;;;16.98;9.70;;;;;;;5.56;100.00;92776.44;5139759;27;20034;-90
2024/01/06 04:50:14;;;;;;;16.40;8.82;;;;;;;5.33;100.00;92770.16;5140016;27;20030;-90
2024/01/06 04:52:39;;;;;;;38.85;9.93;;;;;;;5.50;100.00;92769.72;5140418;27;20031;-90
2024/01/06 04:55:05;;;;;;;14.77;8.38;;;;;;;5.54;100.00;92772.56;5138955;27;20034;-90
2024/01/06 04:57:30;;;;;;;17.48;8.50;;;;;;;5.35;100.00;92778.44;5139472;27;20030;-89
2024/01/06 04:59:56;;;;;;;16.23;8.82;;;;;;;5.22;100.00;92772.84;5139852;27;20045;-90
2024/01/06 05:02:21;;;;;;;15.18;8.00;;;;;;;5.51;100.00;92777.25;5139534;27;20030;-89
2024/01/06 05:04:47;;;;;;;18.88;8.73;;;;;;;5.41;100.00;92768.78;5123205;27;20027;-89
2024/01/06 05:07:12;;;;;;;16.17;8.57;;;;;;;5.40;100.00;92770.59;5139825;27;20038;-90
2024/01/06 05:09:38;;;;;;;210.50;17.20;;;;;;;5.29;100.00;92769.91;5122449;27;20034;-90
2024/01/06 05:12:03;;;;;;;20.45;8.73;;;;;;;5.32;100.00;92763.41;5122239;27;20037;-90
2024/01/06 05:14:29;;;;;;;18.52;9.02;;;;;;;5.46;100.00;92761.72;5122251;27;20043;-89
2024/01/06 05:16:54;;;;;;;14.00;8.23;;;;;;;5.65;100.00;92768.81;5122813;27;20066;-89
2024/01/06 05:19:21;;;;;;;15.27;8.45;;;;;;;5.60;100.00;92768.88;5153792;27;20034;-89
2024/01/06 05:21:47;;;;;;;17.95;8.95;;;;;;;5.67;100.00;92774.50;5161371;27;20067;-90
2024/01/06 05:24:12;;;;;;;20.17;8.80;;;;;;;5.77;100.00;92771.81;5159954;27;20027;-90
2024/01/06 05:26:38;;;;;;;22.60;9.00;;;;;;;5.72;100.00;92758.09;5142433;27;20031;-90
2024/01/06 05:29:03;;;;;;;17.80;9.98;;;;;;;5.90;100.00;92759.22;5159720;27;20034;-91
2024/01/06 05:31:30;;;;;;;22.27;8.38;;;;;;;5.60;100.00;92755.88;5159335;27;20433;-90
2024/01/06 05:33:55;;;;;;;17.77;9.20;;;;;;;5.75;100.00;92765.34;5135403;27;20467;-91
2024/01/06 05:36:20;;;;;;;41.03;10.35;;;;;;;5.77;100.00;92771.03;5118592;28;20055;-90
2024/01/06 05:38:46;;;;;;;187.88;13.57;;;;;;;5.73;100.00;92765.59;5101477;28;20027;-90
2024/01/06 05:41:11;;;;;;;18.17;9.57;;;;;;;5.77;100.00;92758.81;5102356;27;20028;-90
2024/01/06 05:43:37;;;;;;;16.95;8.98;;;;;;;5.64;100.00;92767.28;5121906;27;20023;-90
2024/01/06 05:46:02;;;;;;;17.75;9.60;;;;;;;5.64;100.00;92764.66;5121715;27;20121;-90
2024/01/06 05:48:28;;;;;;;19.90;9.77;;;;;;;5.41;100.00;92759.16;5121567;27;20131;-89
2024/01/06 05:50:53;;;;;;;18.05;9.82;;;;;;;5.60;100.00;92766.28;5139715;27;20053;-89
2024/01/06 05:53:18;;;;;;;16.98;9.35;;;;;;;5.49;100.00;92765.59;5142828;27;20442;-90
2024/01/06 05:55:44;;;;;;;17.48;9.55;;;;;;;5.66;100.00;92770.38;5142053;27;20129;-90
2024/01/06 05:58:09;;;;;;;18.65;9.43;;;;;;;5.80;100.00;92758.25;5127833;27;20135;-90
2024/01/06 06:00:35;;;;;;;27.55;9.20;;;;;;;5.83;100.00;92758.75;5121449;27;20058;-90
2024/01/06 06:03:00;;;;;;;23.73;9.00;;;;;;;5.83;100.00;92758.75;5121498;27;20313;-90
2024/01/06 06:05:26;;;;;;;17.40;9.23;;;;;;;5.80;100.00;92760.84;5138150;27;20325;-90
2024/01/06 06:07:52;;;;;;;34.72;11.35;;;;;;;5.75;100.00;92755.72;5121424;27;20332;-90
2024/01/06 06:10:18;;;;;;;21.02;9.55;;;;;;;5.77;100.00;92758.81;5121351;27;20034;-90
2024/01/06 06:12:44;;;;;;;38.40;9.57;;;;;;;5.69;100.00;92743.81;5116770;28;20070;-90
2024/01/06 06:15:10;;;;;;;41.10;10.25;;;;;;;5.70;100.00;92755.00;5100794;28;20063;-90
2024/01/06 06:17:36;;;;;;;20.02;10.48;;;;;;;5.80;100.00;92765.28;5100592;28;20058;-90
2024/01/06 06:20:02;;;;;;;16.55;9.13;;;;;;;5.81;100.00;92761.66;5100739;28;20038;-90
2024/01/06 06:22:30;;;;;;;17.52;9.30;;;;;;;5.83;100.00;92761.34;5100646;28;20037;-90
2024/01/06 06:24:56;;;;;;;18.52;9.95;;;;;;;5.77;100.00;92763.22;5117614;28;20061;-90
2024/01/06 06:27:23;;;;;;;16.60;9.23;;;;;;;5.73;100.00;92764.84;5100426;28;20039;-90
2024/01/06 06:29:48;;;;;;;19.58;9.52;;;;;;;5.56;100.00;92766.03;5100493;28;20095;-89
2024/01/06 06:32:13;;;;;;;16.38;9.15;;;;;;;5.69;100.00;92756.06;5112055;27;20031;-90
2024/01/06 06:34:39;;;;;;;21.10;10.00;;;;;;;5.80;100.00;92762.66;5125995;27;20031;-90
2024/01/06 06:37:05;;;;;;;18.25;9.27;;;;;;;5.56;100.00;92760.06;5137208;27;20031;-90
2024/01/06 06:39:31;;;;;;;20.55;9.43;;;;;;;5.64;100.00;92757.63;5137797;27;20109;-89
2024/01/06 06:41:57;;;;;;;18.85;9.70;;;;;;;5.77;100.00;92766.63;5139102;27;20095;-90
2024/01/06 06:44:23;;;;;;;18.88;10.32;;;;;;;5.86;100.00;92766.00;5137799;27;20027;-90
2024/01/06 06:46:49;;;;;;;17.33;8.85;;;;;;;5.91;100.00;92763.34;5137497;27;20512;-89
2024/01/06 06:49:14;;;;;;;15.35;8.20;;;;;;;5.89;100.00;92758.44;5137097;27;20110;-90
2024/01/06 06:51:46;;;;;;;17.27;7.60;;;;;;;5.91;100.00;92760.75;5116945;28;20524;-89
2024/01/06 06:54:12;;;;;;;57.13;9.70;;;;;;;5.90;100.00;92761.81;5117094;28;20340;-89
2024/01/06 06:56:37;;;;;;;17.58;7.63;;;;;;;5.90;100.00;92759.97;5117147;28;20030;-90
2024/01/06 06:59:03;;;;;;;20.02;7.07;;;;;;;5.91;100.00;92763.34;5116714;28;20023;-89
2024/01/06 07:01:28;;;;;;;13.45;7.82;;;;;;;5.93;100.00;92758.66;5116873;28;20024;-89
2024/01/06 07:03:54;;;;;;;13.70;7.82;;;;;;;5.93;100.00;92750.84;5116974;28;20035;-90
2024/01/06 07:06:19;;;;;;;10.48;6.88;;;;;;;5.98;100.00;92761.19;5116685;28;20408;-90
2024/01/06 07:08:45;;;;;;;13.85;8.27;;;;;;;5.97;100.00;92764.06;5132458;27;20031;-88
2024/01/06 07:11:11;;;;;;;45.30;8.77;;;;;;;5.95;100.00;92759.16;5137141;27;20085;-88
2024/01/06 07:13:37;;;;;;;90.20;8.10;;;;;;;5.96;100.00;92758.09;5137268;27;20046;-89
2024/01/06 07:16:03;;;;;;;44.10;8.43;;;;;;;5.94;100.00;92760.97;5137332;27;20023;-89
2024/01/06 07:18:28;;;;;;;15.32;8.52;;;;;;;5.98;100.00;92761.19;5120302;27;20070;-89
2024/01/06 07:20:53;;;;;;;30.92;7.03;;;;;;;5.92;100.00;92759.69;5137139;27;20540;-89
2024/01/06 07:23:19;;;;;;;19.88;7.68;;;;;;;5.93;100.00;92761.25;5120488;27;20019;-89
2024/01/06 07:25:44;;;;;;;26.98;7.85;;;;;;;5.91;100.00;92756.31;5120119;27;20030;-89
2024/01/06 07:28:10;;;;;;;67.18;9.25;;;;;;;5.88;100.00;92758.69;5119847;27;20353;-87
2024/01/06 07:30:35;;;;;;;33.47;7.97;;;;;;;5.90;100.00;92759.97;5138250;27;20424;-89
2024/01/06 07:33:01;;;;;;;21.60;7.68;;;;;;;5.93;100.00;92761.25;5137486;27;20023;-90
2024/01/06 07:35:26;;;;;;;15.95;7.72;;;;;;;5.97;100.00;92761.47;5119593;27;20331;-89
2024/01/06 07:37:53;;;;;;;126.43;11.82;;;;;;;6.02;100.00;92761.44;5119563;28;20058;-90
2024/01/06 07:40:18;;;;;;;30.60;8.15;;;;;;;5.93;100.00;92754.22;5140186;27;20030;-89
2024/01/06 07:42:44;;;;;;;75.15;9.82;;;;;;;5.90;100.00;92749.56;5140479;27;20159;-90
2024/01/06 07:45:10;;;;;;;18.10;7.35;;;;;;;6.01;100.00;92745.06;5157451;27;20026;-89
2024/01/06 07:47:35;;;;;;;69.78;9.27;;;;;;;6.01;100.00;92755.44;5157068;27;20432;-89
2024/01/06 07:50:01;;;;;;;47.65;8.63;;;;;;;5.86;100.00;92758.97;5137920;27;20066;-89
2024/01/06 07:52:27;;;;;;;378.52;24.80;;;;;;;5.70;100.00;92760.97;5136736;28;20332;-89
2024/01/06 07:54:52;;;;;;;123.28;11.20;;;;;;;5.93;100.00;92758.66;5121156;27;20031;-89
2024/01/06 07:57:17;;;;;;;23.88;9.05;;;;;;;5.93;100.00;92754.22;5143756;27;20023;-90
2024/01/06 07:59:43;;;;;;;28.38;8.50;;;;;;;6.04;100.00;92767.13;5161308;27;20348;-89
2024/01/06 08:02:08;;;;;;;96.65;11.95;;;;;;;6.01;100.00;92760.66;5164516;27;20407;-89
2024/01/06 08:04:34;;;;;;;19.67;8.45;;;;;;;6.03;100.00;92760.38;5147217;27;20032;-89
2024/01/06 08:06:59;;;;;;;22.35;7.10;;;;;;;6.01;100.00;92765.84;5132774;27;20023;-88
2024/01/06 08:09:25;;;;;;;35.22;9.18;;;;;;;6.01;100.00;92747.66;5143547;27;20058;-88
2024/01/06 08:11:51;;;;;;;94.47;10.20;;;;;;;6.01;100.00;92755.44;5143607;27;20474;-89
2024/01/06 08:14:17;;;;;;;24.85;7.53;;;;;;;6.03;100.00;92757.78;5143492;27;20023;-89
2024/01/06 08:16:43;;;;;;;13.73;7.60;;;;;;;6.00;100.00;92759.06;5143152;27;20049;-89
2024/01/06 08:19:09;;;;;;;16.13;9.40;;;;;;;5.85;100.00;92754.84;5143383;27;20022;-89
2024/01/06 08:21:34;;;;;;;14.57;8.48;;;;;;;5.80;100.00;92760.06;5148031;27;20118;-89
2024/01/06 08:24:00;;;;;;;21.25;8.25;;;;;;;5.92;100.00;92762.31;5164137;27;20023;-89
2024/01/06 08:26:26;;;;;;;16.70;8.63;;;;;;;5.64;100.00;92762.06;5146990;27;20029;-89
2024/01/06 08:28:51;;;;;;;14.93;8.18;;;;;;;5.74;100.00;92763.78;5146750;27;20029;-90
2024/01/06 08:31:17;;;;;;;15.52;8.52;;;;;;;5.89;100.00;92766.22;5151046;27;20454;-90
2024/01/06 08:33:42;;;;;;;14.57;7.75;;;;;;;5.91;100.00;92768.56;5142991;27;20030;-90
2024/01/06 08:36:09;;;;;;;15.43;8.50;;;;;;;5.96;100.00;92765.13;5143013;27;20423;-90
2024/01/06 08:38:35;;;;;;;16.33;9.00;;;;;;;6.01;100.00;92765.84;5160473;27;20435;-91
2024/01/06 08:41:01;;;;;;;16.38;8.43;;;;;;;5.98;100.00;92778.63;5142923;27;20023;-90
2024/01/06 08:43:27;;;;;;;16.77;9.48;;;;;;;5.95;100.00;92766.94;5126332;27;20023;-91
2024/01/06 08:46:31;;;;;;;18.70;9.55;;;;;;;5.94;100.00;92768.00;5126181;27;20029;-90
2024/01/06 08:48:56;;;;;;;18.02;9.15;;;;;;;5.93;100.00;92769.81;5122426;28;20079;-90
2024/01/06 08:51:23;;;;;;;15.82;8.85;;;;;;;6.03;100.00;92776.78;5105713;28;20362;-91
2024/01/06 08:53:49;;;;;;;16.17;8.82;;;;;;;5.90;100.00;92787.81;5122313;28;20137;-91
2024/01/06 08:56:21;;;;;;;17.33;8.45;;;;;;;6.08;100.00;92781.91;5143239;27;20472;-91
2024/01/06 08:58:46;;;;;;;14.93;7.93;;;;;;;6.08;100.00;92781.13;5146444;27;20023;-91
2024/01/06 09:01:13;;;;;;;15.63;8.50;;;;;;;6.15;100.00;92785.97;5124496;27;20030;-91
2024/01/06 09:03:39;;;;;;;17.13;8.57;;;;;;;6.12;100.00;92787.34;5122056;28;20112;-90
2024/01/06 09:06:05;;;;;;;16.25;8.02;;;;;;;6.06;100.00;92783.22;5139760;27;20074;-90
2024/01/06 09:08:30;;;;;;;15.23;7.70;;;;;;;6.21;100.00;92790.09;5122132;27;20057;-90
2024/01/06 09:10:57;;;;;;;13.10;7.20;;;;;;;6.22;100.00;92794.22;5139070;27;20347;-91
2024/01/06 09:13:23;;;;;;;14.90;6.72;;;;;;;6.22;100.00;92789.03;5137453;27;20027;-90
2024/01/06 09:15:51;;;;;;;10.75;5.70;;;;;;;6.26;100.00;92797.06;5101401;28;20030;-90
2024/01/06 09:18:16;;;;;;;8.68;5.10;;;;;;;6.32;100.00;92803.75;5103989;27;20100;-90
2024/01/06 09:20:41;;;;;;;8.82;5.25;;;;;;;6.38;100.00;92796.66;5117819;28;20068;-90
2024/01/06 09:23:07;;;;;;;8.73;5.03;;;;;;;6.39;100.00;92796.38;5135612;27;20024;-90
2024/01/06 09:25:32;;;;;;;8.05;5.07;;;;;;;6.42;100.00;92801.03;5101567;28;20024;-90
2024/01/06 09:27:59;;;;;;;12.75;7.00;;;;;;;6.46;100.00;92796.81;5101375;28;20024;-90
2024/01/06 09:30:25;;;;;;;11.30;6.63;;;;;;;6.43;100.00;92793.97;5101455;28;20040;-90
2024/01/06 09:32:51;;;;;;;12.07;7.05;;;;;;;6.49;100.00;92795.47;5118261;28;20092;-90
2024/01/06 09:35:16;;;;;;;11.52;6.45;;;;;;;6.43;100.00;92794.75;5101222;28;20023;-90
2024/01/06 09:37:42;;;;;;;11.55;6.57;;;;;;;6.42;100.00;92792.44;5101167;28;20077;-90
2024/01/06 09:40:12;;;;;;;12.32;6.57;;;;;;;6.39;100.00;92793.78;5101411;28;20030;-91
2024/01/06 09:42:38;;;;;;;12.35;6.13;;;;;;;6.38;100.00;92789.59;5118142;28;20310;-91
2024/01/06 09:45:04;;;;;;;10.20;6.38;;;;;;;6.38;100.00;92794.06;5118056;28;20122;-91
2024/01/06 09:47:34;;;;;;;10.05;5.88;;;;;;;6.41;100.00;92786.47;5101013;28;20073;-91
2024/01/06 09:50:01;;;;;;;12.20;6.80;;;;;;;6.48;100.00;92789.47;5101149;28;20073;-90
2024/01/06 09:52:27;;;;;;;8.93;5.40;;;;;;;6.44;100.00;92791.09;5100982;28;20414;-90
2024/01/06 09:54:53;;;;;;;10.38;6.10;;;;;;;6.54;100.00;92787.59;5118292;28;20114;-91
2024/01/06 09:57:20;;;;;;;11.73;6.80;;;;;;;6.49;100.00;92785.81;5101128;28;20410;-91
2024/01/06 09:59:46;;;;;;;13.88;7.25;;;;;;;6.58;100.00;92788.56;5117911;28;20027;-91
2024/01/06 10:02:16;;;;;;;11.93;6.82;;;;;;;6.57;100.00;92776.63;5101071;28;20042;-91
2024/01/06 10:04:43;;;;;;;11.65;6.55;;;;;;;6.66;100.00;92781.97;5117650;28;20023;-91
2024/01/06 10:07:12;;;;;;;12.75;6.38;;;;;;;6.67;100.00;92772.34;5117652;28;20023;-91
2024/01/06 10:09:37;;;;;;;11.93;6.60;;;;;;;6.66;100.00;92774.16;5101328;28;20027;-90
2024/01/06 10:12:03;;;;;;;12.13;6.57;;;;;;;6.51;100.00;92768.09;5117741;28;20020;-90
2024/01/06 10:14:28;;;;;;;10.70;6.25;;;;;;;6.32;100.00;92755.09;5100758;28;20020;-90
2024/01/06 10:16:54;;;;;;;10.57;5.68;;;;;;;6.48;100.00;92767.91;5100580;28;20019;-90
2024/01/06 10:19:20;;;;;;;9.13;5.15;;;;;;;6.57;100.00;92761.00;5116318;28;20023;-90
2024/01/06 10:21:46;;;;;;;8.40;4.78;;;;;;;6.81;100.00;92764.59;5117781;27;20133;-91
2024/01/06 10:24:12;;;;;;;11.13;5.65;;;;;;;6.96;100.00;92767.00;5100285;28;20114;-91
2024/01/06 10:26:38;;;;;;;9.63;5.72;;;;;;;7.03;100.00;92769.22;5100589;28;20020;-91
2024/01/06 10:29:04;;;;;;;11.10;5.82;;;;;;;6.96;100.00;92768.81;5117200;28;20015;-91
2024/01/06 10:31:30;;;;;;;7.70;4.60;;;;;;;6.45;100.00;92763.25;5117509;28;20440;-91
2024/01/06 10:33:55;;;;;;;6.72;4.18;;;;;;;6.04;100.00;92762.72;5100333;28;20026;-91
2024/01/06 10:36:23;;;;;;;7.65;4.32;;;;;;;6.01;100.00;92752.06;5100401;28;20447;-91
2024/01/06 10:38:49;;;;;;;7.47;4.18;;;;;;;5.91;100.00;92747.75;5100296;28;20024;-91
2024/01/06 10:41:16;;;;;;;7.53;4.15;;;;;;;5.80;100.00;92745.25;5117126;28;20028;-91
2024/01/06 10:43:43;;;;;;;7.70;4.57;;;;;;;6.09;100.00;92754.06;5100346;28;20145;-91
2024/01/06 10:46:12;;;;;;;8.30;4.80;;;;;;;6.49;100.00;92751.25;5100463;28;20051;-91
2024/01/06 10:48:42;;;;;;;11.23;4.88;;;;;;;6.89;100.00;92753.53;5100335;28;20112;-92
2024/01/06 10:51:08;;;;;;;9.93;5.38;;;;;;;7.09;100.00;92752.47;5100686;28;20027;-92
2024/01/06 10:53:39;;;;;;;9.65;5.43;;;;;;;7.21;100.00;92752.78;5116874;28;20072;-90
2024/01/06 10:56:05;;;;;;;8.75;5.03;;;;;;;7.36;100.00;92748.38;5100558;28;20623;-91
2024/01/06 10:58:33;;;;;;;10.05;4.80;;;;;;;7.30;100.00;92744.31;5099827;28;20024;-91
2024/01/06 11:01:00;;;;;;;10.85;5.20;;;;;;;6.99;100.00;92737.78;5100149;28;20047;-91
2024/01/06 11:03:28;;;;;;;9.50;5.47;;;;;;;6.34;100.00;92734.00;5099978;28;20344;-91
2024/01/06 11:05:53;;;;;;;9.23;5.32;;;;;;;6.75;100.00;92730.84;5100225;28;20023;-90
2024/01/06 11:08:19;;;;;;;9.95;5.85;;;;;;;6.01;100.00;92723.47;5116489;28;20447;-91
2024/01/06 11:10:44;;;;;;;10.82;6.28;;;;;;;6.20;100.00;92715.72;5100178;28;20028;-91
2024/01/06 11:13:13;;;;;;;7.93;4.90;;;;;;;6.68;100.00;92719.22;5116708;28;20344;-91
2024/01/06 11:15:43;;;;;;;9.32;5.65;;;;;;;6.66;100.00;92706.50;5116828;28;20440;-90
2024/01/06 11:18:09;;;;;;;10.20;5.50;;;;;;;6.86;100.00;92710.63;5116719;28;20352;-91
2024/01/06 11:20:34;;;;;;;9.73;5.40;;;;;;;7.10;100.00;92701.91;5116362;28;20039;-91